createdAt,value
2019-05-11T00:00:32.858Z,992.23
2019-05-11T00:01:32.851Z,992.23
2019-05-11T00:02:32.859Z,992.27
2019-05-11T00:03:32.830Z,992.27
2019-05-11T00:04:32.815Z,992.33
2019-05-11T00:05:32.803Z,992.34
2019-05-11T00:06:32.793Z,992.36
2019-05-11T00:07:32.807Z,992.33
2019-05-11T00:08:32.771Z,992.33
2019-05-11T00:09:32.764Z,992.29
2019-05-11T00:10:32.758Z,992.31
2019-05-11T00:11:32.743Z,992.27
2019-05-11T00:12:32.748Z,992.24
2019-05-11T00:13:32.716Z,992.26
2019-05-11T00:14:32.705Z,992.34
2019-05-11T00:15:32.696Z,992.32
2019-05-11T00:16:32.685Z,992.34
2019-05-11T00:17:32.696Z,992.35
2019-05-11T00:18:32.660Z,992.36
2019-05-11T00:19:32.653Z,992.35
2019-05-11T00:20:32.638Z,992.32
2019-05-11T00:21:32.627Z,992.33
2019-05-11T00:22:32.641Z,992.33
2019-05-11T00:23:32.604Z,992.33
2019-05-11T00:24:32.594Z,992.32
2019-05-11T00:25:32.582Z,992.31
2019-05-11T00:26:32.572Z,992.29
2019-05-11T00:27:32.580Z,992.30
2019-05-11T00:28:32.549Z,992.27
2019-05-11T00:29:32.556Z,992.21
2019-05-11T00:30:32.526Z,992.21
2019-05-11T00:31:32.517Z,992.23
2019-05-11T00:32:32.526Z,992.18
2019-05-11T00:33:32.493Z,992.23
2019-05-11T00:34:32.506Z,992.22
2019-05-11T00:35:32.476Z,992.21
2019-05-11T00:36:32.465Z,992.21
2019-05-11T00:37:32.449Z,992.21
2019-05-11T00:38:32.460Z,992.23
2019-05-11T00:39:32.427Z,992.25
2019-05-11T00:40:32.418Z,992.20
2019-05-11T00:41:32.405Z,992.21
2019-05-11T00:42:32.395Z,992.22
2019-05-11T00:43:32.410Z,992.23
2019-05-11T00:44:32.371Z,992.22
2019-05-11T00:45:32.359Z,992.24
2019-05-11T00:46:32.354Z,992.19
2019-05-11T00:47:32.341Z,992.19
2019-05-11T00:48:32.351Z,992.11
2019-05-11T00:49:32.321Z,992.13
2019-05-11T00:50:39.194Z,992.07
2019-05-11T00:51:33.293Z,992.08
2019-05-11T00:52:32.283Z,992.05
2019-05-11T00:53:32.309Z,992.05
2019-05-11T00:54:32.261Z,992.01
2019-05-11T00:55:32.249Z,992.01
2019-05-11T00:56:32.238Z,992.03
2019-05-11T00:57:32.227Z,992.02
2019-05-11T00:58:32.237Z,991.96
2019-05-11T00:59:32.205Z,991.98
2019-05-11T01:00:32.201Z,991.97
2019-05-11T01:01:32.196Z,991.97
2019-05-11T01:02:32.172Z,991.94
2019-05-11T01:03:32.183Z,991.94
2019-05-11T01:04:32.163Z,991.89
2019-05-11T01:05:32.138Z,991.88
2019-05-11T01:06:32.127Z,991.87
2019-05-11T01:07:32.116Z,991.82
2019-05-11T01:08:32.126Z,991.82
2019-05-11T01:09:32.093Z,991.82
2019-05-11T01:10:41.782Z,991.81
2019-05-11T01:11:33.070Z,991.79
2019-05-11T01:12:32.062Z,991.81
2019-05-11T01:13:32.069Z,991.82
2019-05-11T01:14:32.040Z,991.80
2019-05-11T01:15:32.031Z,991.77
2019-05-11T01:16:32.022Z,991.76
2019-05-11T01:17:32.004Z,991.77
2019-05-11T01:18:32.024Z,991.69
2019-05-11T01:19:31.983Z,991.68
2019-05-11T01:20:31.971Z,991.67
2019-05-11T01:21:31.963Z,991.64
2019-05-11T01:22:31.948Z,991.67
2019-05-11T01:23:31.962Z,991.75
2019-05-11T01:24:31.927Z,991.80
2019-05-11T01:25:31.939Z,991.73
2019-05-11T01:26:31.904Z,991.75
2019-05-11T01:27:31.897Z,991.71
2019-05-11T01:28:31.883Z,991.72
2019-05-11T01:29:31.891Z,991.68
2019-05-11T01:30:31.860Z,991.74
2019-05-11T01:31:31.848Z,991.77
2019-05-11T01:32:31.837Z,991.75
2019-05-11T01:33:31.827Z,991.77
2019-05-11T01:34:31.843Z,991.76
2019-05-11T01:35:31.804Z,991.75
2019-05-11T01:36:31.795Z,991.68
2019-05-11T01:37:31.785Z,991.64
2019-05-11T01:38:31.775Z,991.60
2019-05-11T01:39:31.785Z,991.51
2019-05-11T01:40:31.750Z,991.49
2019-05-11T01:41:31.737Z,991.43
2019-05-11T01:42:31.731Z,991.44
2019-05-11T01:43:31.717Z,991.47
2019-05-11T01:44:31.726Z,991.45
2019-05-11T01:45:31.697Z,991.49
2019-05-11T01:46:31.683Z,991.51
2019-05-11T01:47:31.673Z,991.53
2019-05-11T01:48:31.659Z,991.52
2019-05-11T01:49:31.670Z,991.49
2019-05-11T01:50:31.641Z,991.50
2019-05-11T01:51:31.630Z,991.45
2019-05-11T01:52:31.619Z,991.52
2019-05-11T01:53:31.630Z,991.55
2019-05-11T01:54:31.626Z,991.53
2019-05-11T01:55:31.582Z,991.55
2019-05-11T01:56:31.575Z,991.56
2019-05-11T01:57:31.565Z,991.52
2019-05-11T01:58:31.551Z,991.54
2019-05-11T01:59:31.563Z,991.53
2019-05-11T02:00:31.528Z,991.47
2019-05-11T02:01:31.524Z,991.44
2019-05-11T02:02:31.505Z,991.45
2019-05-11T02:03:31.501Z,991.46
2019-05-11T02:04:31.505Z,991.42
2019-05-11T02:05:31.474Z,991.41
2019-05-11T02:06:31.467Z,991.40
2019-05-11T02:07:31.450Z,991.35
2019-05-11T02:08:31.439Z,991.36
2019-05-11T02:09:31.450Z,991.36
2019-05-11T02:10:31.420Z,991.36
2019-05-11T02:11:31.406Z,991.36
2019-05-11T02:12:31.399Z,991.33
2019-05-11T02:13:31.387Z,991.36
2019-05-11T02:14:31.394Z,991.33
2019-05-11T02:15:31.365Z,991.33
2019-05-11T02:16:31.354Z,991.39
2019-05-11T02:17:31.342Z,991.40
2019-05-11T02:18:31.328Z,991.46
2019-05-11T02:19:31.344Z,991.48
2019-05-11T02:20:31.313Z,991.46
2019-05-11T02:21:31.316Z,991.45
2019-05-11T02:22:31.284Z,991.50
2019-05-11T02:23:31.274Z,991.46
2019-05-11T02:24:31.263Z,991.40
2019-05-11T02:25:31.274Z,991.45
2019-05-11T02:26:31.241Z,991.44
2019-05-11T02:27:31.230Z,991.43
2019-05-11T02:28:31.218Z,991.41
2019-05-11T02:29:31.208Z,991.50
2019-05-11T02:30:31.222Z,991.47
2019-05-11T02:31:31.196Z,991.45
2019-05-11T02:32:31.174Z,991.56
2019-05-11T02:33:31.245Z,991.55
2019-05-11T02:34:31.158Z,991.56
2019-05-11T02:35:31.166Z,991.56
2019-05-11T02:36:31.156Z,991.57
2019-05-11T02:37:31.123Z,991.59
2019-05-11T02:38:31.109Z,991.56
2019-05-11T02:39:31.099Z,991.55
2019-05-11T02:40:31.116Z,991.52
2019-05-11T02:41:36.520Z,991.48
2019-05-11T02:42:32.064Z,991.48
2019-05-11T02:43:31.060Z,991.46
2019-05-11T02:44:31.042Z,991.43
2019-05-11T02:45:31.061Z,991.39
2019-05-11T02:46:31.025Z,991.36
2019-05-11T02:47:31.013Z,991.29
2019-05-11T02:48:31.001Z,991.30
2019-05-11T02:49:30.992Z,991.32
2019-05-11T02:50:30.998Z,991.29
2019-05-11T02:51:30.966Z,991.31
2019-05-11T02:52:30.963Z,991.28
2019-05-11T02:53:30.943Z,991.30
2019-05-11T02:54:30.933Z,991.31
2019-05-11T02:55:30.945Z,991.26
2019-05-11T02:56:30.915Z,991.23
2019-05-11T02:57:30.898Z,991.19
2019-05-11T02:58:30.889Z,991.18
2019-05-11T02:59:30.882Z,991.19
2019-05-11T03:00:30.885Z,991.16
2019-05-11T03:01:30.861Z,991.14
2019-05-11T03:02:30.845Z,991.19
2019-05-11T03:03:30.830Z,991.25
2019-05-11T03:04:30.823Z,991.28
2019-05-11T03:05:30.831Z,991.32
2019-05-11T03:06:30.801Z,991.29
2019-05-11T03:07:30.795Z,991.19
2019-05-11T03:08:30.775Z,991.22
2019-05-11T03:09:30.766Z,991.23
2019-05-11T03:10:30.777Z,991.20
2019-05-11T03:11:30.742Z,991.20
2019-05-11T03:12:30.731Z,991.14
2019-05-11T03:13:30.749Z,991.17
2019-05-11T03:14:30.720Z,991.16
2019-05-11T03:15:30.701Z,991.16
2019-05-11T03:16:30.714Z,991.17
2019-05-11T03:17:30.677Z,991.14
2019-05-11T03:18:30.665Z,991.15
2019-05-11T03:19:30.658Z,991.14
2019-05-11T03:20:30.652Z,991.17
2019-05-11T03:21:30.656Z,991.14
2019-05-11T03:22:30.629Z,991.14
2019-05-11T03:23:30.619Z,991.21
2019-05-11T03:24:30.599Z,991.15
2019-05-11T03:25:30.588Z,991.15
2019-05-11T03:26:30.602Z,991.09
2019-05-11T03:27:30.586Z,991.12
2019-05-11T03:28:30.555Z,991.13
2019-05-11T03:29:30.543Z,991.08
2019-05-11T03:30:30.537Z,991.10
2019-05-11T03:31:30.557Z,991.10
2019-05-11T03:32:30.513Z,991.06
2019-05-11T03:33:30.513Z,991.07
2019-05-11T03:34:30.492Z,991.03
2019-05-11T03:35:30.482Z,991.01
2019-05-11T03:36:30.488Z,991.04
2019-05-11T03:37:30.459Z,991.06
2019-05-11T03:38:30.455Z,991.03
2019-05-11T03:39:30.432Z,991.07
2019-05-11T03:40:30.437Z,991.05
2019-05-11T03:41:30.432Z,991.08
2019-05-11T03:42:30.400Z,991.08
2019-05-11T03:43:30.388Z,991.05
2019-05-11T03:44:30.387Z,991.05
2019-05-11T03:45:30.365Z,991.05
2019-05-11T03:46:30.377Z,991.06
2019-05-11T03:47:30.346Z,991.06
2019-05-11T03:48:30.333Z,991.08
2019-05-11T03:49:30.321Z,990.99
2019-05-11T03:50:30.314Z,991.06
2019-05-11T03:51:30.324Z,991.07
2019-05-11T03:52:30.294Z,991.03
2019-05-11T03:53:30.278Z,990.99
2019-05-11T03:54:30.267Z,991.03
2019-05-11T03:55:30.256Z,990.91
2019-05-11T03:56:30.270Z,990.88
2019-05-11T03:57:30.233Z,990.88
2019-05-11T03:58:30.222Z,990.83
2019-05-11T03:59:30.212Z,990.89
2019-05-11T04:00:30.200Z,990.91
2019-05-11T04:01:30.214Z,990.94
2019-05-11T04:02:30.179Z,990.92
2019-05-11T04:03:30.168Z,990.95
2019-05-11T04:04:30.156Z,990.91
2019-05-11T04:05:30.167Z,990.97
2019-05-11T04:06:30.138Z,991.00
2019-05-11T04:07:30.144Z,990.98
2019-05-11T04:08:30.113Z,991.00
2019-05-11T04:09:30.100Z,990.98
2019-05-11T04:10:30.101Z,990.93
2019-05-11T04:11:30.107Z,990.96
2019-05-11T04:12:34.540Z,990.97
2019-05-11T04:13:31.063Z,990.94
2019-05-11T04:14:30.047Z,990.94
2019-05-11T04:15:30.038Z,991.02
2019-05-11T04:16:30.024Z,991.02
2019-05-11T04:17:30.032Z,991.01
2019-05-11T04:18:30.004Z,991.02
2019-05-11T04:19:29.989Z,990.95
2019-05-11T04:20:29.977Z,990.93
2019-05-11T04:21:29.968Z,990.92
2019-05-11T04:22:29.981Z,990.90
2019-05-11T04:23:29.949Z,990.91
2019-05-11T04:24:29.938Z,990.91
2019-05-11T04:25:29.924Z,990.90
2019-05-11T04:26:29.916Z,990.91
2019-05-11T04:27:29.929Z,990.90
2019-05-11T04:28:29.890Z,990.90
2019-05-11T04:29:29.881Z,990.91
2019-05-11T04:30:29.872Z,990.87
2019-05-11T04:31:29.859Z,990.86
2019-05-11T04:32:29.869Z,990.87
2019-05-11T04:33:33.027Z,990.89
2019-05-11T04:34:29.827Z,990.80
2019-05-11T04:35:29.812Z,990.88
2019-05-11T04:36:29.801Z,990.90
2019-05-11T04:37:29.813Z,990.92
2019-05-11T04:38:29.780Z,990.95
2019-05-11T04:39:29.772Z,990.95
2019-05-11T04:40:29.757Z,990.98
2019-05-11T04:41:29.750Z,990.96
2019-05-11T04:42:29.775Z,990.98
2019-05-11T04:43:29.726Z,991.00
2019-05-11T04:44:29.713Z,991.03
2019-05-11T04:45:29.706Z,991.03
2019-05-11T04:46:29.700Z,991.06
2019-05-11T04:47:29.700Z,991.04
2019-05-11T04:48:29.677Z,991.09
2019-05-11T04:49:29.659Z,991.08
2019-05-11T04:50:29.647Z,991.12
2019-05-11T04:51:29.636Z,991.10
2019-05-11T04:52:29.645Z,991.11
2019-05-11T04:53:29.618Z,991.10
2019-05-11T04:54:29.602Z,991.12
2019-05-11T04:55:29.595Z,991.13
2019-05-11T04:56:29.581Z,991.14
2019-05-11T04:57:29.595Z,991.13
2019-05-11T04:58:29.562Z,991.12
2019-05-11T04:59:29.551Z,991.15
2019-05-11T05:00:29.537Z,991.17
2019-05-11T05:01:29.549Z,991.16
2019-05-11T05:02:29.514Z,991.15
2019-05-11T05:03:40.264Z,991.11
2019-05-11T05:04:30.490Z,991.13
2019-05-11T05:05:29.485Z,991.08
2019-05-11T05:06:29.469Z,991.13
2019-05-11T05:07:29.460Z,991.12
2019-05-11T05:08:29.469Z,991.15
2019-05-11T05:09:29.542Z,991.15
2019-05-11T05:10:29.429Z,991.16
2019-05-11T05:11:30.596Z,991.21
2019-05-11T05:12:30.403Z,991.22
2019-05-11T05:13:31.366Z,991.22
2019-05-11T05:14:29.381Z,991.24
2019-05-11T05:15:29.370Z,991.25
2019-05-11T05:16:31.563Z,991.26
2019-05-11T05:17:29.349Z,991.23
2019-05-11T05:18:29.359Z,991.28
2019-05-11T05:19:29.328Z,991.23
2019-05-11T05:20:29.319Z,991.25
2019-05-11T05:21:29.304Z,991.27
2019-05-11T05:22:29.294Z,991.25
2019-05-11T05:23:29.305Z,991.28
2019-05-11T05:24:29.270Z,991.25
2019-05-11T05:25:29.262Z,991.29
2019-05-11T05:26:29.250Z,991.29
2019-05-11T05:27:29.238Z,991.29
2019-05-11T05:28:29.262Z,991.32
2019-05-11T05:29:29.216Z,991.33
2019-05-11T05:30:29.206Z,991.31
2019-05-11T05:31:29.197Z,991.33
2019-05-11T05:32:29.184Z,991.30
2019-05-11T05:33:29.194Z,991.30
2019-05-11T05:34:29.161Z,991.29
2019-05-11T05:35:29.155Z,991.30
2019-05-11T05:36:29.143Z,991.28
2019-05-11T05:37:29.128Z,991.30
2019-05-11T05:38:29.138Z,991.30
2019-05-11T05:39:29.105Z,991.33
2019-05-11T05:40:29.095Z,991.36
2019-05-11T05:41:29.083Z,991.34
2019-05-11T05:42:29.077Z,991.35
2019-05-11T05:43:29.084Z,991.31
2019-05-11T05:44:29.052Z,991.38
2019-05-11T05:45:29.039Z,991.32
2019-05-11T05:46:29.028Z,991.32
2019-05-11T05:47:29.016Z,991.38
2019-05-11T05:48:29.031Z,991.38
2019-05-11T05:49:28.998Z,991.38
2019-05-11T05:50:28.983Z,991.36
2019-05-11T05:51:28.972Z,991.40
2019-05-11T05:52:28.962Z,991.41
2019-05-11T05:53:28.959Z,991.38
2019-05-11T05:54:29.035Z,991.43
2019-05-11T05:55:28.932Z,991.38
2019-05-11T05:56:28.917Z,991.41
2019-05-11T05:57:28.909Z,991.42
2019-05-11T05:58:28.900Z,991.39
2019-05-11T05:59:28.910Z,991.38
2019-05-11T06:00:28.873Z,991.36
2019-05-11T06:01:28.870Z,991.33
2019-05-11T06:02:28.855Z,991.34
2019-05-11T06:03:28.841Z,991.29
2019-05-11T06:04:28.855Z,991.35
2019-05-11T06:05:28.823Z,991.33
2019-05-11T06:06:28.828Z,991.31
2019-05-11T06:07:28.803Z,991.32
2019-05-11T06:08:28.797Z,991.31
2019-05-11T06:09:28.799Z,991.31
2019-05-11T06:10:28.763Z,991.32
2019-05-11T06:11:28.754Z,991.30
2019-05-11T06:12:28.743Z,991.32
2019-05-11T06:13:43.818Z,991.34
2019-05-11T06:14:29.741Z,991.36
2019-05-11T06:15:28.708Z,991.41
2019-05-11T06:16:28.702Z,991.36
2019-05-11T06:17:28.691Z,991.36
2019-05-11T06:18:28.677Z,991.34
2019-05-11T06:19:28.685Z,991.35
2019-05-11T06:20:28.654Z,991.38
2019-05-11T06:21:28.644Z,991.36
2019-05-11T06:22:28.631Z,991.38
2019-05-11T06:23:28.621Z,991.38
2019-05-11T06:24:28.636Z,991.42
2019-05-11T06:25:28.603Z,991.38
2019-05-11T06:26:28.590Z,991.40
2019-05-11T06:27:28.576Z,991.41
2019-05-11T06:28:28.568Z,991.43
2019-05-11T06:29:28.579Z,991.47
2019-05-11T06:30:28.543Z,991.48
2019-05-11T06:31:28.539Z,991.46
2019-05-11T06:32:28.522Z,991.48
2019-05-11T06:33:28.514Z,991.44
2019-05-11T06:34:28.522Z,991.52
2019-05-11T06:35:28.491Z,991.44
2019-05-11T06:36:28.484Z,991.47
2019-05-11T06:37:28.467Z,991.53
2019-05-11T06:38:28.454Z,991.52
2019-05-11T06:39:28.466Z,991.57
2019-05-11T06:40:28.799Z,991.55
2019-05-11T06:41:28.422Z,991.51
2019-05-11T06:42:28.411Z,991.52
2019-05-11T06:43:28.400Z,991.54
2019-05-11T06:44:28.411Z,991.58
2019-05-11T06:45:28.378Z,991.54
2019-05-11T06:46:28.369Z,991.60
2019-05-11T06:47:28.360Z,991.55
2019-05-11T06:48:28.366Z,991.59
2019-05-11T06:49:28.335Z,991.60
2019-05-11T06:50:28.345Z,991.63
2019-05-11T06:51:28.312Z,991.63
2019-05-11T06:52:28.305Z,991.64
2019-05-11T06:53:28.294Z,991.62
2019-05-11T06:54:28.280Z,991.60
2019-05-11T06:55:28.296Z,991.59
2019-05-11T06:56:28.265Z,991.61
2019-05-11T06:57:28.250Z,991.59
2019-05-11T06:58:28.238Z,991.60
2019-05-11T06:59:28.226Z,991.59
2019-05-11T07:00:28.236Z,991.59
2019-05-11T07:01:28.202Z,991.59
2019-05-11T07:02:28.190Z,991.58
2019-05-11T07:03:28.179Z,991.58
2019-05-11T07:04:28.173Z,991.59
2019-05-11T07:05:28.184Z,991.57
2019-05-11T07:06:30.523Z,991.58
2019-05-11T07:07:28.139Z,991.53
2019-05-11T07:08:28.125Z,991.56
2019-05-11T07:09:28.114Z,991.56
2019-05-11T07:10:28.129Z,991.57
2019-05-11T07:11:28.093Z,991.60
2019-05-11T07:12:28.086Z,991.58
2019-05-11T07:13:28.071Z,991.58
2019-05-11T07:14:28.063Z,991.60
2019-05-11T07:15:28.069Z,991.64
2019-05-11T07:16:28.046Z,991.64
2019-05-11T07:17:28.030Z,991.66
2019-05-11T07:18:28.014Z,991.64
2019-05-11T07:19:28.008Z,991.72
2019-05-11T07:20:28.014Z,991.70
2019-05-11T07:21:27.987Z,991.70
2019-05-11T07:22:27.972Z,991.64
2019-05-11T07:23:27.961Z,991.65
2019-05-11T07:24:27.953Z,991.69
2019-05-11T07:25:27.964Z,991.66
2019-05-11T07:26:27.929Z,991.70
2019-05-11T07:27:27.919Z,991.69
2019-05-11T07:28:27.909Z,991.71
2019-05-11T07:29:27.895Z,991.69
2019-05-11T07:30:27.908Z,991.68
2019-05-11T07:31:27.908Z,991.71
2019-05-11T07:32:29.325Z,991.72
2019-05-11T07:33:28.685Z,991.76
2019-05-11T07:34:27.908Z,991.74
2019-05-11T07:35:28.012Z,991.76
2019-05-11T07:36:28.362Z,991.79
2019-05-11T07:37:28.106Z,991.82
2019-05-11T07:38:27.993Z,991.82
2019-05-11T07:39:28.025Z,991.83
2019-05-11T07:40:27.999Z,991.85
2019-05-11T07:41:28.256Z,991.84
2019-05-11T07:42:28.563Z,991.85
2019-05-11T07:43:28.758Z,991.88
2019-05-11T07:44:37.646Z,991.88
2019-05-11T07:45:28.719Z,991.90
2019-05-11T07:46:28.760Z,991.88
2019-05-11T07:47:27.955Z,991.90
2019-05-11T07:48:28.015Z,991.93
2019-05-11T07:49:29.230Z,991.93
2019-05-11T07:50:28.373Z,991.97
2019-05-11T07:51:28.703Z,991.98
2019-05-11T07:52:28.714Z,992.05
2019-05-11T07:53:28.041Z,992.01
2019-05-11T07:54:28.187Z,992.08
2019-05-11T07:55:28.328Z,992.14
2019-05-11T07:56:28.478Z,992.13
2019-05-11T07:57:28.360Z,992.09
2019-05-11T07:58:28.560Z,992.10
2019-05-11T07:59:28.894Z,992.14
2019-05-11T08:00:28.177Z,992.13
2019-05-11T08:01:28.339Z,992.17
2019-05-11T08:02:28.521Z,992.19
2019-05-11T08:03:28.341Z,992.18
2019-05-11T08:04:28.774Z,992.23
2019-05-11T08:05:28.421Z,992.25
2019-05-11T08:06:28.534Z,992.28
2019-05-11T08:07:28.560Z,992.34
2019-05-11T08:08:28.370Z,992.30
2019-05-11T08:09:27.938Z,992.37
2019-05-11T08:10:28.155Z,992.34
2019-05-11T08:11:30.782Z,992.36
2019-05-11T08:12:28.456Z,992.35
2019-05-11T08:13:28.242Z,992.39
2019-05-11T08:14:28.753Z,992.39
2019-05-11T08:15:28.370Z,992.43
2019-05-11T08:16:28.588Z,992.42
2019-05-11T08:17:28.640Z,992.42
2019-05-11T08:18:28.180Z,992.43
2019-05-11T08:19:28.279Z,992.49
2019-05-11T08:20:28.068Z,992.49
2019-05-11T08:21:28.403Z,992.54
2019-05-11T08:22:28.389Z,992.47
2019-05-11T08:23:28.512Z,992.52
2019-05-11T08:24:28.480Z,992.57
2019-05-11T08:25:28.684Z,992.55
2019-05-11T08:26:28.317Z,992.58
2019-05-11T08:27:28.573Z,992.59
2019-05-11T08:28:28.784Z,992.55
2019-05-11T08:29:27.949Z,992.58
2019-05-11T08:30:27.806Z,992.59
2019-05-11T08:31:27.893Z,992.56
2019-05-11T08:32:28.619Z,992.61
2019-05-11T08:33:28.373Z,992.58
2019-05-11T08:34:28.618Z,992.59
2019-05-11T08:35:30.880Z,992.59
2019-05-11T08:36:28.933Z,992.56
2019-05-11T08:37:28.370Z,992.63
2019-05-11T08:38:28.515Z,992.65
2019-05-11T08:39:28.808Z,992.60
2019-05-11T08:40:28.817Z,992.67
2019-05-11T08:41:27.974Z,992.62
2019-05-11T08:42:28.852Z,992.63
2019-05-11T08:43:28.563Z,992.61
2019-05-11T08:44:28.755Z,992.66
2019-05-11T08:45:27.972Z,992.68
2019-05-11T08:46:27.924Z,992.71
2019-05-11T08:47:28.357Z,992.73
2019-05-11T08:48:28.284Z,992.72
2019-05-11T08:49:28.725Z,992.72
2019-05-11T08:50:27.889Z,992.74
2019-05-11T08:51:28.007Z,992.78
2019-05-11T08:52:28.091Z,992.83
2019-05-11T08:53:28.422Z,992.83
2019-05-11T08:54:28.831Z,992.86
2019-05-11T08:55:28.974Z,992.91
2019-05-11T08:56:28.874Z,992.92
2019-05-11T08:57:28.545Z,992.94
2019-05-11T08:58:27.811Z,992.98
2019-05-11T08:59:27.842Z,992.95
2019-05-11T09:00:28.332Z,992.95
2019-05-11T09:01:28.717Z,992.92
2019-05-11T09:02:27.825Z,992.97
2019-05-11T09:03:28.460Z,993.02
2019-05-11T09:04:28.800Z,993.05
2019-05-11T09:05:28.051Z,993.07
2019-05-11T09:06:28.422Z,993.08
2019-05-11T09:07:27.819Z,993.10
2019-05-11T09:08:28.351Z,993.14
2019-05-11T09:09:28.683Z,993.16
2019-05-11T09:10:28.143Z,993.19
2019-05-11T09:11:28.368Z,993.18
2019-05-11T09:12:28.765Z,993.19
2019-05-11T09:13:27.987Z,993.20
2019-05-11T09:14:28.317Z,993.24
2019-05-11T09:15:36.446Z,993.26
2019-05-11T09:16:29.126Z,993.27
2019-05-11T09:17:28.799Z,993.27
2019-05-11T09:18:28.010Z,993.32
2019-05-11T09:19:28.435Z,993.35
2019-05-11T09:20:28.488Z,993.35
2019-05-11T09:21:28.178Z,993.37
2019-05-11T09:22:28.327Z,993.40
2019-05-11T09:23:34.672Z,993.40
2019-05-11T09:24:28.280Z,993.48
2019-05-11T09:25:27.757Z,993.43
2019-05-11T09:26:28.661Z,993.46
2019-05-11T09:27:28.519Z,993.49
2019-05-11T09:28:29.303Z,993.48
2019-05-11T09:29:28.191Z,993.53
2019-05-11T09:30:28.649Z,993.53
2019-05-11T09:31:27.950Z,993.56
2019-05-11T09:32:28.542Z,993.59
2019-05-11T09:33:28.284Z,993.60
2019-05-11T09:34:28.649Z,993.61
2019-05-11T09:35:29.037Z,993.63
2019-05-11T09:36:28.515Z,993.68
2019-05-11T09:37:27.765Z,993.68
2019-05-11T09:38:27.757Z,993.70
2019-05-11T09:39:28.066Z,993.73
2019-05-11T09:40:28.380Z,993.76
2019-05-11T09:41:28.772Z,993.77
2019-05-11T09:42:28.420Z,993.76
2019-05-11T09:43:28.363Z,993.78
2019-05-11T09:44:28.620Z,993.79
2019-05-11T09:45:27.802Z,993.83
2019-05-11T09:46:27.883Z,993.81
2019-05-11T09:47:27.928Z,993.85
2019-05-11T09:48:28.402Z,993.82
2019-05-11T09:49:43.349Z,993.88
2019-05-11T09:50:28.384Z,993.90
2019-05-11T09:51:28.595Z,993.91
2019-05-11T09:52:27.596Z,993.93
2019-05-11T09:53:28.315Z,993.97
2019-05-11T09:54:28.756Z,993.98
2019-05-11T09:55:28.274Z,993.99
2019-05-11T09:56:28.596Z,994.01
2019-05-11T09:57:27.623Z,994.03
2019-05-11T09:58:28.074Z,994.04
2019-05-11T09:59:28.273Z,994.04
2019-05-11T10:00:28.284Z,994.07
2019-05-11T10:01:26.214Z,994.09
2019-05-11T10:02:27.993Z,994.12
2019-05-11T10:03:28.137Z,994.12
2019-05-11T10:04:28.606Z,994.14
2019-05-11T10:05:28.436Z,994.18
2019-05-11T10:06:28.187Z,994.16
2019-05-11T10:07:28.450Z,994.16
2019-05-11T10:08:28.541Z,994.18
2019-05-11T10:09:28.022Z,994.21
2019-05-11T10:10:26.115Z,994.21
2019-05-11T10:11:28.157Z,994.22
2019-05-11T10:12:28.466Z,994.25
2019-05-11T10:13:27.828Z,994.25
2019-05-11T10:14:26.093Z,994.26
2019-05-11T10:15:27.970Z,994.25
2019-05-11T10:16:28.074Z,994.25
2019-05-11T10:17:26.040Z,994.25
2019-05-11T10:18:27.977Z,994.29
2019-05-11T10:19:28.240Z,994.30
2019-05-11T10:20:28.477Z,994.28
2019-05-11T10:21:27.917Z,994.33
2019-05-11T10:22:27.869Z,994.33
2019-05-11T10:23:27.892Z,994.32
2019-05-11T10:24:28.137Z,994.40
2019-05-11T10:25:28.493Z,994.41
2019-05-11T10:26:27.858Z,994.41
2019-05-11T10:27:28.036Z,994.45
2019-05-11T10:28:28.283Z,994.45
2019-05-11T10:29:25.932Z,994.48
2019-05-11T10:30:28.000Z,994.46
2019-05-11T10:31:28.253Z,994.53
2019-05-11T10:32:25.879Z,994.48
2019-05-11T10:33:27.981Z,994.55
2019-05-11T10:34:28.302Z,994.56
2019-05-11T10:35:25.842Z,994.57
2019-05-11T10:36:27.920Z,994.60
2019-05-11T10:37:28.128Z,994.54
2019-05-11T10:38:25.828Z,994.58
2019-05-11T10:39:27.975Z,994.61
2019-05-11T10:40:27.886Z,994.64
2019-05-11T10:41:28.260Z,994.64
2019-05-11T10:42:25.767Z,994.67
2019-05-11T10:43:25.774Z,994.64
2019-05-11T10:44:27.927Z,994.68
2019-05-11T10:45:25.754Z,994.65
2019-05-11T10:46:25.720Z,994.68
2019-05-11T10:47:27.790Z,994.65
2019-05-11T10:48:28.069Z,994.64
2019-05-11T10:49:25.688Z,994.64
2019-05-11T10:50:25.699Z,994.65
2019-05-11T10:51:25.668Z,994.70
2019-05-11T10:52:25.655Z,994.72
2019-05-11T10:53:27.892Z,994.71
2019-05-11T10:54:28.444Z,994.71
2019-05-11T10:55:27.881Z,994.66
2019-05-11T10:56:25.608Z,994.71
2019-05-11T10:57:28.131Z,994.70
2019-05-11T10:58:25.589Z,994.73
2019-05-11T10:59:27.954Z,994.71
2019-05-11T11:00:25.586Z,994.72
2019-05-11T11:01:25.554Z,994.70
2019-05-11T11:02:27.689Z,994.78
2019-05-11T11:03:25.532Z,994.78
2019-05-11T11:04:25.520Z,994.84
2019-05-11T11:05:27.772Z,994.84
2019-05-11T11:06:27.987Z,994.80
2019-05-11T11:07:25.487Z,994.82
2019-05-11T11:08:27.662Z,994.84
2019-05-11T11:09:25.469Z,994.89
2019-05-11T11:10:25.479Z,994.88
2019-05-11T11:11:27.607Z,994.89
2019-05-11T11:12:27.756Z,994.90
2019-05-11T11:13:25.420Z,994.93
2019-05-11T11:14:25.414Z,994.93
2019-05-11T11:15:25.419Z,994.92
2019-05-11T11:16:36.898Z,994.94
2019-05-11T11:17:28.574Z,994.92
2019-05-11T11:18:25.366Z,994.94
2019-05-11T11:19:25.355Z,994.94
2019-05-11T11:20:27.810Z,994.92
2019-05-11T11:21:27.731Z,994.98
2019-05-11T11:22:36.946Z,994.92
2019-05-11T11:23:28.346Z,994.96
2019-05-11T11:24:25.301Z,994.93
2019-05-11T11:25:25.309Z,994.98
2019-05-11T11:26:25.301Z,994.98
2019-05-11T11:27:25.267Z,994.97
2019-05-11T11:28:25.259Z,994.99
2019-05-11T11:29:25.248Z,994.99
2019-05-11T11:30:25.240Z,995.02
2019-05-11T11:31:25.243Z,995.06
2019-05-11T11:32:27.657Z,995.07
2019-05-11T11:33:27.538Z,995.03
2019-05-11T11:34:25.188Z,995.10
2019-05-11T11:35:25.177Z,995.06
2019-05-11T11:36:25.191Z,995.08
2019-05-11T11:37:25.160Z,995.09
2019-05-11T11:38:25.173Z,995.14
2019-05-11T11:39:25.132Z,995.15
2019-05-11T11:40:25.121Z,995.16
2019-05-11T11:41:25.133Z,995.13
2019-05-11T11:42:25.104Z,995.14
2019-05-11T11:43:25.090Z,995.11
2019-05-11T11:44:25.077Z,995.14
2019-05-11T11:45:25.066Z,995.15
2019-05-11T11:46:25.080Z,995.12
2019-05-11T11:47:25.045Z,995.13
2019-05-11T11:48:25.033Z,995.16
2019-05-11T11:49:25.023Z,995.14
2019-05-11T11:50:25.012Z,995.13
2019-05-11T11:51:25.022Z,995.13
2019-05-11T11:52:24.990Z,995.12
2019-05-11T11:53:24.979Z,995.12
2019-05-11T11:54:24.968Z,995.18
2019-05-11T11:55:24.956Z,995.18
2019-05-11T11:56:24.969Z,995.14
2019-05-11T11:57:24.937Z,995.12
2019-05-11T11:58:24.924Z,995.16
2019-05-11T11:59:24.915Z,995.20
2019-05-11T12:00:24.902Z,995.21
2019-05-11T12:01:24.913Z,995.23
2019-05-11T12:02:24.882Z,995.26
2019-05-11T12:03:24.872Z,995.30
2019-05-11T12:04:24.856Z,995.31
2019-05-11T12:05:24.852Z,995.32
2019-05-11T12:06:24.858Z,995.31
2019-05-11T12:07:24.845Z,995.35
2019-05-11T12:08:24.813Z,995.29
2019-05-11T12:09:24.800Z,995.29
2019-05-11T12:10:24.789Z,995.36
2019-05-11T12:11:24.777Z,995.36
2019-05-11T12:12:24.794Z,995.35
2019-05-11T12:13:27.414Z,995.41
2019-05-11T12:14:24.746Z,995.41
2019-05-11T12:15:24.734Z,995.40
2019-05-11T12:16:24.727Z,995.44
2019-05-11T12:17:24.733Z,995.42
2019-05-11T12:18:24.704Z,995.41
2019-05-11T12:19:24.695Z,995.41
2019-05-11T12:20:24.679Z,995.42
2019-05-11T12:21:24.668Z,995.46
2019-05-11T12:22:24.678Z,995.45
2019-05-11T12:23:24.646Z,995.45
2019-05-11T12:24:24.635Z,995.47
2019-05-11T12:25:24.624Z,995.47
2019-05-11T12:26:24.612Z,995.46
2019-05-11T12:27:24.624Z,995.48
2019-05-11T12:28:24.591Z,995.48